Time;durP1;ratioP1;P1;durP2;ratioP2;P2;SDS_P1;SDS_P2;PMS_P1;PMS_P2;Temp;Humidity;BMP_temperature;BMP_pressure;BME280_temperature;BME280_humidity;BME280_pressure;Samples;Min_cycle;Max_cycle;Signal;HPM_P1;HPM_P2
2024/02/11 00:01:54;;;;;;;10.90;5.47;;;10.60;99.90;;;;;;5028867;28;20043;-74
2024/02/11 00:04:20;;;;;;;12.70;5.20;;;10.60;99.90;;;;;;5044111;28;20121;-74
2024/02/11 00:06:46;;;;;;;10.27;5.93;;;10.60;99.90;;;;;;5028751;28;20036;-74
2024/02/11 00:09:12;;;;;;;13.00;6.25;;;10.60;99.90;;;;;;5039812;28;20033;-76
2024/02/11 00:11:38;;;;;;;12.43;6.68;;;10.50;99.90;;;;;;5029345;28;20106;-74
2024/02/11 00:14:03;;;;;;;12.98;6.57;;;10.50;99.90;;;;;;5025067;28;20030;-73
2024/02/11 00:16:30;;;;;;;12.30;6.43;;;10.50;99.90;;;;;;5043946;28;20067;-75
2024/02/11 00:18:56;;;;;;;11.32;5.45;;;10.40;99.90;;;;;;5028528;28;20087;-75
2024/02/11 00:21:23;;;;;;;13.85;5.95;;;10.50;99.90;;;;;;5044921;28;20083;-73
2024/02/11 00:23:49;;;;;;;11.52;5.47;;;10.50;99.90;;;;;;5027665;28;20029;-74
2024/02/11 00:26:16;;;;;;;10.18;6.20;;;10.50;99.90;;;;;;5040837;28;20528;-76
2024/02/11 00:28:42;;;;;;;12.30;6.55;;;10.40;99.90;;;;;;5025826;28;20386;-74
2024/02/11 00:31:08;;;;;;;14.50;7.25;;;10.40;99.90;;;;;;5038727;28;20034;-75
2024/02/11 00:33:33;;;;;;;15.75;6.53;;;10.40;99.90;;;;;;5043180;28;20040;-73
2024/02/11 00:36:00;;;;;;;12.52;6.60;;;10.30;99.90;;;;;;5043381;28;20482;-74
2024/02/11 00:38:26;;;;;;;11.75;5.60;;;10.30;99.90;;;;;;5044653;28;20074;-76
2024/02/11 00:40:52;;;;;;;13.45;6.65;;;10.30;99.90;;;;;;5040706;28;20109;-76
2024/02/11 00:43:17;;;;;;;12.15;5.97;;;10.30;99.90;;;;;;5049598;28;20498;-73
2024/02/11 00:45:43;;;;;;;11.55;5.53;;;10.30;99.90;;;;;;5066397;28;20044;-75
2024/02/11 00:48:10;;;;;;;13.65;6.30;;;10.30;99.90;;;;;;5045719;28;20041;-75
2024/02/11 00:50:35;;;;;;;14.27;6.60;;;10.30;99.90;;;;;;5066882;28;20424;-73
2024/02/11 00:53:02;;;;;;;14.27;6.85;;;10.30;99.90;;;;;;5065989;28;20047;-75
2024/02/11 00:55:28;;;;;;;12.43;6.03;;;10.30;99.90;;;;;;5048732;28;20048;-77
2024/02/11 00:57:54;;;;;;;10.85;6.15;;;10.30;99.90;;;;;;5067764;28;20032;-73
2024/02/11 01:00:20;;;;;;;15.23;6.88;;;10.30;99.90;;;;;;5049275;28;20028;-74
2024/02/11 01:02:46;;;;;;;13.70;6.22;;;10.30;99.90;;;;;;5066730;28;20029;-75
2024/02/11 01:05:12;;;;;;;15.55;7.68;;;10.30;99.90;;;;;;5067791;28;20044;-76
2024/02/11 01:07:38;;;;;;;11.50;5.88;;;10.30;99.90;;;;;;5068410;28;20154;-74
2024/02/11 01:10:10;;;;;;;14.65;7.30;;;10.30;99.90;;;;;;5044192;28;20482;-74
2024/02/11 01:12:36;;;;;;;11.13;6.63;;;10.30;99.90;;;;;;5066633;28;20029;-73
2024/02/11 01:15:02;;;;;;;12.35;7.55;;;10.40;99.90;;;;;;5049516;28;20127;-73
2024/02/11 01:17:29;;;;;;;11.65;6.68;;;10.40;99.90;;;;;;5048320;28;20140;-77
2024/02/11 01:19:54;;;;;;;14.35;6.63;;;10.40;99.90;;;;;;5049299;28;20033;-73
2024/02/11 01:22:20;;;;;;;13.63;7.03;;;10.40;99.90;;;;;;5067976;28;20378;-74
2024/02/11 01:24:45;;;;;;;13.00;7.10;;;10.40;99.90;;;;;;5066491;28;20059;-73
2024/02/11 01:27:11;;;;;;;12.38;6.93;;;10.50;99.90;;;;;;5065784;28;20041;-73
2024/02/11 01:29:37;;;;;;;12.98;6.85;;;10.40;99.90;;;;;;5047923;28;20188;-76
2024/02/11 01:32:05;;;;;;;14.55;7.05;;;10.40;99.90;;;;;;5049229;28;20064;-74
2024/02/11 01:34:31;;;;;;;13.30;6.88;;;10.40;99.90;;;;;;5048192;28;20044;-74
2024/02/11 01:36:56;;;;;;;11.25;6.13;;;10.40;99.90;;;;;;5055124;28;20701;-74
2024/02/11 01:39:22;;;;;;;18.30;6.95;;;10.40;99.90;;;;;;5052038;28;20033;-73
2024/02/11 01:41:47;;;;;;;15.43;8.07;;;10.40;99.90;;;;;;5054799;28;20033;-73
2024/02/11 01:44:14;;;;;;;23.85;6.65;;;10.40;99.90;;;;;;5072532;28;20040;-76
2024/02/11 01:46:41;;;;;;;13.10;6.75;;;10.30;99.90;;;;;;5073196;28;20063;-74
2024/02/11 01:49:10;;;;;;;14.45;7.22;;;10.30;99.90;;;;;;5074268;28;20595;-74
2024/02/11 01:51:42;;;;;;;13.30;6.65;;;10.30;99.90;;;;;;5054405;28;20056;-74
2024/02/11 01:54:12;;;;;;;15.18;7.22;;;10.30;99.90;;;;;;5037978;28;20060;-76
2024/02/11 01:56:39;;;;;;;13.88;6.82;;;10.30;99.90;;;;;;5037234;28;20040;-76
2024/02/11 01:59:05;;;;;;;12.70;7.22;;;10.20;99.90;;;;;;5042747;28;20399;-74
2024/02/11 02:01:32;;;;;;;16.75;7.53;;;10.20;99.90;;;;;;5045900;28;20098;-74
2024/02/11 02:03:58;;;;;;;13.32;7.43;;;10.20;99.90;;;;;;5045181;28;20457;-75
2024/02/11 02:06:24;;;;;;;13.18;7.47;;;10.20;99.90;;;;;;5043468;28;20056;-75
2024/02/11 02:08:50;;;;;;;15.80;6.70;;;10.20;99.90;;;;;;5043405;28;20058;-76
2024/02/11 02:11:16;;;;;;;16.52;7.55;;;10.20;99.90;;;;;;5042696;28;20679;-75
2024/02/11 02:13:42;;;;;;;14.40;7.05;;;10.20;99.90;;;;;;5045052;28;20550;-74
2024/02/11 02:16:08;;;;;;;16.40;8.15;;;10.20;99.90;;;;;;5044552;28;20715;-74
2024/02/11 02:18:34;;;;;;;16.45;7.15;;;10.20;99.90;;;;;;5045412;28;20032;-74
2024/02/11 02:21:04;;;;;;;12.93;7.18;;;10.10;99.90;;;;;;5044909;28;20409;-74
2024/02/11 02:23:30;;;;;;;15.77;7.00;;;10.20;99.90;;;;;;5051807;28;20036;-73
2024/02/11 02:26:07;;;;;;;13.88;7.43;;;10.20;99.90;;;;;;5051549;28;20029;-73
2024/02/11 02:28:33;;;;;;;14.40;7.57;;;10.10;99.90;;;;;;5049128;28;20048;-74
2024/02/11 02:30:59;;;;;;;14.73;7.65;;;10.10;99.90;;;;;;5044307;28;20049;-75
2024/02/11 02:33:24;;;;;;;16.98;8.00;;;10.10;99.90;;;;;;5045667;28;20036;-73
2024/02/11 02:35:50;;;;;;;17.70;8.25;;;10.10;99.90;;;;;;5043266;28;20025;-73
2024/02/11 02:38:16;;;;;;;18.35;7.97;;;10.10;99.90;;;;;;5048615;28;20104;-74
2024/02/11 02:40:42;;;;;;;13.43;7.32;;;10.10;99.90;;;;;;5043268;28;20551;-76
2024/02/11 02:43:11;;;;;;;16.75;7.80;;;10.10;99.90;;;;;;5048393;28;20034;-75
2024/02/11 02:45:38;;;;;;;13.15;7.28;;;10.10;99.90;;;;;;5045818;28;20108;-73
2024/02/11 02:48:05;;;;;;;12.95;7.00;;;10.10;99.90;;;;;;5046006;28;20486;-74
2024/02/11 02:50:31;;;;;;;16.17;8.63;;;10.10;99.90;;;;;;5040672;28;20104;-75
2024/02/11 02:52:56;;;;;;;25.23;9.07;;;10.10;99.90;;;;;;5042172;28;20052;-71
2024/02/11 02:55:22;;;;;;;15.77;8.20;;;10.10;99.90;;;;;;5047223;28;20036;-74
2024/02/11 02:57:47;;;;;;;12.55;7.00;;;10.10;99.90;;;;;;5039985;28;20441;-79
2024/02/11 03:00:15;;;;;;;17.98;7.18;;;10.10;99.90;;;;;;5046408;28;20040;-72
2024/02/11 03:02:40;;;;;;;16.92;7.57;;;10.10;99.90;;;;;;5043807;28;20029;-73
2024/02/11 03:05:06;;;;;;;19.40;8.88;;;10.10;99.90;;;;;;5043665;28;20040;-74
2024/02/11 03:07:32;;;;;;;13.35;7.93;;;10.10;99.90;;;;;;5042756;28;20022;-74
2024/02/11 03:09:59;;;;;;;17.48;8.20;;;10.10;99.90;;;;;;5042675;28;20033;-76
2024/02/11 03:12:24;;;;;;;17.77;8.77;;;10.10;99.90;;;;;;5044080;28;20059;-72
2024/02/11 03:14:50;;;;;;;15.43;8.40;;;10.10;99.90;;;;;;5036674;28;20053;-74
2024/02/11 03:17:16;;;;;;;18.73;8.95;;;10.10;99.90;;;;;;5043825;28;20044;-74
2024/02/11 03:19:43;;;;;;;17.63;8.75;;;10.10;99.90;;;;;;5043821;28;20026;-75
2024/02/11 03:22:12;;;;;;;14.30;7.20;;;10.10;99.90;;;;;;5044699;28;20395;-74
2024/02/11 03:24:44;;;;;;;15.80;8.43;;;10.10;99.90;;;;;;5046225;28;20112;-73
2024/02/11 03:27:10;;;;;;;18.40;9.27;;;10.10;99.90;;;;;;5041648;28;20456;-73
2024/02/11 03:29:36;;;;;;;19.10;9.00;;;10.10;99.90;;;;;;5043175;28;20171;-76
2024/02/11 03:32:02;;;;;;;17.48;8.63;;;10.10;99.90;;;;;;5038313;28;20144;-73
2024/02/11 03:34:28;;;;;;;16.65;7.88;;;10.10;99.90;;;;;;5040365;28;20041;-74
2024/02/11 03:36:53;;;;;;;14.70;7.75;;;10.10;99.90;;;;;;5042269;28;20059;-73
2024/02/11 03:39:19;;;;;;;14.35;6.95;;;10.10;99.90;;;;;;5041841;28;20486;-72
2024/02/11 03:41:45;;;;;;;14.07;6.60;;;10.10;99.90;;;;;;5043034;28;20037;-74
2024/02/11 03:44:11;;;;;;;17.33;8.38;;;10.10;99.90;;;;;;5044285;28;20040;-77
2024/02/11 03:46:37;;;;;;;13.85;7.07;;;10.10;99.90;;;;;;5045015;28;20048;-74
2024/02/11 03:49:02;;;;;;;14.43;7.32;;;10.10;99.90;;;;;;5039860;28;20072;-73
2024/02/11 03:51:28;;;;;;;13.35;7.10;;;10.10;99.90;;;;;;5043177;28;20034;-74
2024/02/11 03:53:56;;;;;;;16.33;7.28;;;10.10;99.90;;;;;;5051737;28;20048;-73
2024/02/11 03:56:26;;;;;;;13.98;7.15;;;10.10;99.90;;;;;;5044759;28;20071;-76
2024/02/11 03:58:52;;;;;;;15.13;7.75;;;10.10;99.90;;;;;;5044132;28;20025;-75
2024/02/11 04:01:17;;;;;;;12.40;6.88;;;10.10;99.90;;;;;;5061574;28;20103;-74
2024/02/11 04:03:43;;;;;;;17.35;7.30;;;10.10;99.90;;;;;;5063514;28;20023;-73
2024/02/11 04:06:09;;;;;;;14.48;7.72;;;10.10;99.90;;;;;;5061861;28;20045;-75
2024/02/11 04:08:35;;;;;;;13.55;7.40;;;10.10;99.90;;;;;;5060711;28;20029;-74
2024/02/11 04:11:01;;;;;;;13.07;7.07;;;10.10;99.90;;;;;;5066064;28;20040;-74
2024/02/11 04:13:26;;;;;;;14.25;6.65;;;10.10;99.90;;;;;;5061515;28;20513;-76
2024/02/11 04:15:56;;;;;;;18.65;7.35;;;10.10;99.90;;;;;;5042164;28;20039;-74
2024/02/11 04:18:24;;;;;;;14.90;7.30;;;10.10;99.90;;;;;;5060879;28;20082;-72
2024/02/11 04:20:54;;;;;;;14.02;7.28;;;10.10;99.90;;;;;;5058273;28;20032;-75
2024/02/11 04:23:20;;;;;;;17.10;8.98;;;10.10;99.90;;;;;;5039482;28;20045;-72
2024/02/11 04:25:46;;;;;;;14.18;7.63;;;10.10;99.90;;;;;;5042456;28;20032;-73
2024/02/11 04:28:11;;;;;;;15.43;7.30;;;10.10;99.90;;;;;;5040208;28;20040;-75
2024/02/11 04:30:38;;;;;;;16.80;7.57;;;10.10;99.90;;;;;;5059527;28;20050;-72
2024/02/11 04:33:07;;;;;;;15.68;8.02;;;10.10;99.90;;;;;;5057905;28;20041;-74
2024/02/11 04:35:33;;;;;;;18.58;7.90;;;10.10;99.90;;;;;;5062415;28;20039;-74
2024/02/11 04:38:00;;;;;;;13.88;7.25;;;10.10;99.90;;;;;;5044782;28;20129;-73
2024/02/11 04:40:26;;;;;;;14.25;7.65;;;10.10;99.90;;;;;;5057060;28;20114;-73
2024/02/11 04:42:53;;;;;;;14.85;7.50;;;10.10;99.90;;;;;;5041987;28;20120;-76
2024/02/11 04:45:20;;;;;;;13.70;7.60;;;10.10;99.90;;;;;;5058932;28;20037;-74
2024/02/11 04:47:53;;;;;;;15.18;7.85;;;10.10;99.90;;;;;;5058695;28;20046;-76
2024/02/11 04:50:21;;;;;;;13.98;7.00;;;10.10;99.90;;;;;;5041333;28;20028;-76
2024/02/11 04:52:54;;;;;;;14.27;7.07;;;10.10;99.90;;;;;;5066842;28;20025;-75
2024/02/11 04:55:46;;;;;;;19.23;8.25;;;10.10;99.90;;;;;;5063792;28;20044;-74
2024/02/11 04:58:19;;;;;;;15.27;8.13;;;10.10;99.90;;;;;;5042765;28;20060;-75
2024/02/11 05:00:49;;;;;;;14.65;8.00;;;10.10;99.90;;;;;;5043282;28;20079;-74
2024/02/11 05:03:20;;;;;;;15.63;8.45;;;10.10;99.90;;;;;;5029597;28;20037;-72
2024/02/11 05:05:50;;;;;;;13.75;7.25;;;10.10;99.90;;;;;;5027796;28;20487;-75
2024/02/11 05:08:19;;;;;;;12.07;5.57;;;10.10;99.90;;;;;;5046816;28;20036;-74
2024/02/11 05:10:46;;;;;;;14.93;7.45;;;10.10;99.90;;;;;;5027722;28;20033;-73
2024/02/11 05:13:15;;;;;;;16.23;8.32;;;10.10;99.90;;;;;;5030897;28;20069;-75
2024/02/11 05:15:48;;;;;;;16.33;7.95;;;10.10;99.90;;;;;;5045022;28;20021;-75
2024/02/11 05:18:15;;;;;;;12.95;6.97;;;10.10;99.90;;;;;;5047913;28;20024;-74
2024/02/11 05:20:41;;;;;;;17.40;8.57;;;10.10;99.90;;;;;;5055154;28;20025;-75
2024/02/11 05:23:10;;;;;;;14.88;7.85;;;10.10;99.90;;;;;;5057594;28;20123;-74
2024/02/11 05:25:40;;;;;;;17.27;8.18;;;10.10;99.90;;;;;;5054725;28;20021;-74
2024/02/11 05:28:11;;;;;;;18.88;8.82;;;10.10;99.90;;;;;;5054887;28;20371;-75
2024/02/11 05:30:38;;;;;;;;;;;10.10;99.90;;;;;;5040834;28;20048;-74
2024/02/11 05:33:06;;;;;;;17.17;8.43;;;10.10;99.90;;;;;;5045228;28;19995;-73
2024/02/11 05:35:35;;;;;;;21.33;9.43;;;10.10;99.90;;;;;;5056673;28;20573;-72
2024/02/11 05:38:01;;;;;;;16.10;8.27;;;10.10;99.90;;;;;;5051115;28;20029;-75
2024/02/11 05:40:28;;;;;;;21.17;9.15;;;10.10;99.90;;;;;;5040981;28;20532;-75
2024/02/11 05:42:55;;;;;;;18.25;9.40;;;10.10;99.90;;;;;;5058085;28;20132;-74
2024/02/11 05:45:21;;;;;;;16.30;8.70;;;10.10;99.90;;;;;;5047508;28;20025;-73
2024/02/11 05:47:47;;;;;;;18.02;9.23;;;10.10;99.90;;;;;;5045689;28;20039;-74
2024/02/11 05:50:13;;;;;;;19.67;9.88;;;10.10;99.90;;;;;;5047921;28;20143;-72
2024/02/11 05:52:39;;;;;;;21.02;9.68;;;10.10;99.90;;;;;;5057084;28;20140;-75
2024/02/11 05:55:09;;;;;;;18.13;8.65;;;10.10;99.90;;;;;;5043347;28;20090;-72
2024/02/11 05:57:36;;;;;;;19.08;9.32;;;10.10;99.90;;;;;;5057030;28;20041;-74
2024/02/11 06:00:02;;;;;;;18.83;8.88;;;10.10;99.90;;;;;;5054820;28;20489;-73
2024/02/11 06:02:28;;;;;;;16.33;8.52;;;10.00;99.90;;;;;;5045711;28;20442;-74
2024/02/11 06:04:54;;;;;;;17.35;9.48;;;10.00;99.90;;;;;;5046895;28;20067;-75
2024/02/11 06:07:19;;;;;;;17.65;9.48;;;10.00;99.90;;;;;;5047892;28;20047;-74
2024/02/11 06:09:45;;;;;;;15.55;8.18;;;10.00;99.90;;;;;;5045628;28;20036;-74
2024/02/11 06:12:12;;;;;;;17.58;8.70;;;10.00;99.90;;;;;;5059172;28;20051;-75
2024/02/11 06:14:38;;;;;;;13.52;7.05;;;10.00;99.90;;;;;;5057414;28;20045;-73
2024/02/11 06:17:06;;;;;;;10.38;6.03;;;10.00;99.90;;;;;;5061092;28;20040;-72
2024/02/11 06:19:32;;;;;;;8.68;4.75;;;10.00;99.90;;;;;;5056663;28;20044;-72
2024/02/11 06:22:01;;;;;;;10.57;3.85;;;9.90;99.90;;;;;;5048405;28;20033;-71
2024/02/11 06:24:27;;;;;;;6.50;3.05;;;9.80;99.90;;;;;;5050451;28;20493;-76
2024/02/11 06:26:54;;;;;;;6.28;3.10;;;9.70;99.90;;;;;;5063642;28;20029;-73
2024/02/11 06:29:19;;;;;;;8.60;3.55;;;9.70;99.90;;;;;;5051270;28;20044;-71
2024/02/11 06:31:49;;;;;;;6.50;3.67;;;9.60;99.90;;;;;;5060903;28;20060;-73
2024/02/11 06:34:15;;;;;;;6.30;2.88;;;9.60;99.90;;;;;;5052127;28;20497;-73
2024/02/11 06:36:40;;;;;;;9.82;3.60;;;9.50;99.90;;;;;;5057844;28;20043;-73
2024/02/11 06:39:10;;;;;;;8.40;3.42;;;9.40;99.90;;;;;;5065464;28;20037;-74
2024/02/11 06:41:38;;;;;;;6.13;3.30;;;9.40;99.90;;;;;;5047957;28;20077;-75
2024/02/11 06:44:06;;;;;;;9.68;3.92;;;9.30;99.90;;;;;;5065293;28;20056;-73
2024/02/11 06:46:32;;;;;;;11.43;3.35;;;9.20;99.90;;;;;;5048455;28;20036;-74
2024/02/11 06:48:57;;;;;;;12.13;3.92;;;9.20;99.90;;;;;;5057906;28;20393;-72
2024/02/11 06:51:23;;;;;;;14.30;3.85;;;9.20;99.90;;;;;;5063205;28;20082;-73
2024/02/11 06:53:49;;;;;;;7.72;3.70;;;9.10;99.90;;;;;;5040615;28;20555;-74
2024/02/11 06:56:14;;;;;;;7.18;3.38;;;9.10;99.90;;;;;;5060914;28;20100;-75
2024/02/11 06:58:41;;;;;;;7.68;3.28;;;9.10;99.90;;;;;;5062633;28;20032;-75
2024/02/11 07:01:10;;;;;;;10.25;2.90;;;9.00;99.90;;;;;;5051072;28;20083;-75
2024/02/11 07:03:37;;;;;;;7.18;2.60;;;9.00;99.90;;;;;;5064297;28;20039;-73
2024/02/11 07:06:06;;;;;;;13.10;2.88;;;8.90;99.90;;;;;;5053270;28;20062;-74
2024/02/11 07:08:33;;;;;;;7.72;3.33;;;8.90;99.90;;;;;;5058945;28;20029;-73
2024/02/11 07:10:58;;;;;;;6.97;3.08;;;8.90;99.90;;;;;;5050533;28;20048;-74
2024/02/11 07:13:25;;;;;;;5.03;2.47;;;8.90;99.90;;;;;;5049599;28;20477;-71
2024/02/11 07:15:50;;;;;;;8.60;3.03;;;8.80;99.90;;;;;;5048983;28;20025;-73
2024/02/11 07:18:16;;;;;;;13.77;3.22;;;8.80;99.90;;;;;;5062491;28;20048;-73
2024/02/11 07:20:42;;;;;;;7.55;3.00;;;8.80;99.90;;;;;;5062891;28;20441;-75
2024/02/11 07:23:07;;;;;;;9.70;3.58;;;8.70;99.90;;;;;;5050751;28;20136;-73
2024/02/11 07:25:33;;;;;;;9.18;3.53;;;8.70;99.90;;;;;;5059086;28;20028;-73
2024/02/11 07:27:59;;;;;;;12.13;5.80;;;8.70;99.90;;;;;;5050591;28;20040;-74
2024/02/11 07:30:25;;;;;;;5.82;2.78;;;8.70;99.90;;;;;;5064914;28;20031;-72
2024/02/11 07:32:51;;;;;;;7.70;3.08;;;8.70;99.90;;;;;;5064957;28;20036;-74
2024/02/11 07:35:18;;;;;;;9.50;4.10;;;8.70;99.90;;;;;;5050010;28;20036;-73
2024/02/11 07:37:44;;;;;;;8.88;3.20;;;8.60;99.90;;;;;;5064720;28;20040;-75
2024/02/11 07:40:14;;;;;;;6.65;2.92;;;8.60;99.90;;;;;;5063136;28;20505;-75
2024/02/11 07:42:40;;;;;;;7.78;3.10;;;8.60;99.90;;;;;;5062787;28;20037;-73
2024/02/11 07:45:06;;;;;;;11.50;3.03;;;8.60;99.90;;;;;;5045531;28;20169;-72
2024/02/11 07:47:33;;;;;;;7.28;3.10;;;8.60;99.90;;;;;;5060438;28;20117;-74
2024/02/11 07:50:00;;;;;;;11.75;2.67;;;8.60;99.90;;;;;;5066541;28;20047;-73
2024/02/11 07:52:27;;;;;;;10.75;3.10;;;8.60;99.90;;;;;;5057485;28;20564;-75
2024/02/11 07:54:52;;;;;;;8.23;3.42;;;8.60;99.90;;;;;;5060986;28;20040;-75
2024/02/11 07:57:18;;;;;;;11.85;3.42;;;8.60;99.90;;;;;;5066729;28;20201;-72
2024/02/11 07:59:45;;;;;;;8.18;3.38;;;8.60;99.90;;;;;;5046168;28;20099;-72
2024/02/11 08:02:11;;;;;;;12.73;3.75;;;8.60;99.90;;;;;;5042260;28;20547;-75
2024/02/11 08:04:36;;;;;;;12.60;3.40;;;8.60;99.90;;;;;;5063851;28;20064;-72
2024/02/11 08:07:02;;;;;;;19.42;5.15;;;8.60;99.90;;;;;;5066187;28;20127;-75
2024/02/11 08:09:27;;;;;;;19.35;4.68;;;8.50;99.90;;;;;;5042014;28;20048;-74
2024/02/11 08:11:53;;;;;;;10.60;3.55;;;8.60;99.90;;;;;;5039851;28;20028;-73
2024/02/11 08:14:19;;;;;;;19.23;4.43;;;8.60;99.90;;;;;;5065456;28;20562;-73
2024/02/11 08:16:45;;;;;;;14.02;3.78;;;8.60;99.90;;;;;;5064410;28;20044;-73
2024/02/11 08:19:11;;;;;;;9.00;3.78;;;8.60;99.90;;;;;;5065860;28;20033;-73
2024/02/11 08:21:36;;;;;;;19.73;4.72;;;8.60;99.90;;;;;;5060513;28;20036;-73
2024/02/11 08:24:02;;;;;;;12.00;4.10;;;8.70;99.90;;;;;;5048863;28;20119;-74
2024/02/11 08:26:28;;;;;;;15.30;5.25;;;8.70;99.90;;;;;;5059585;28;20170;-73
2024/02/11 08:28:59;;;;;;;12.73;4.72;;;8.70;99.90;;;;;;5066020;28;20501;-72
2024/02/11 08:31:25;;;;;;;12.82;4.95;;;8.80;99.90;;;;;;5062166;28;20521;-73
2024/02/11 08:33:51;;;;;;;11.40;4.05;;;8.80;99.90;;;;;;5056509;28;20071;-73
2024/02/11 08:36:16;;;;;;;13.60;4.80;;;8.80;99.90;;;;;;5060510;28;20935;-71
2024/02/11 08:38:42;;;;;;;15.00;5.05;;;8.90;99.90;;;;;;5051410;28;20033;-74
2024/02/11 08:41:08;;;;;;;12.52;4.70;;;8.80;99.90;;;;;;5045985;28;20120;-74
2024/02/11 08:43:33;;;;;;;14.75;4.60;;;8.90;99.90;;;;;;5054497;28;20057;-73
2024/02/11 08:46:03;;;;;;;15.75;4.80;;;8.90;99.90;;;;;;5054624;28;20029;-74
2024/02/11 08:48:31;;;;;;;13.05;4.22;;;8.90;99.90;;;;;;5055166;28;20069;-73
2024/02/11 08:50:57;;;;;;;11.15;4.35;;;8.90;99.90;;;;;;5054858;28;20082;-74
2024/02/11 08:53:23;;;;;;;12.90;4.22;;;8.90;99.90;;;;;;5046157;28;20028;-77
2024/02/11 08:55:48;;;;;;;13.18;4.57;;;8.90;99.90;;;;;;5043070;28;20037;-74
2024/02/11 08:58:17;;;;;;;12.43;4.32;;;8.90;99.90;;;;;;5046722;28;20040;-74
2024/02/11 09:00:42;;;;;;;17.65;4.55;;;8.90;99.90;;;;;;5056479;28;20028;-74
2024/02/11 09:03:08;;;;;;;14.02;4.63;;;9.00;99.90;;;;;;5046814;28;20467;-74
2024/02/11 09:05:34;;;;;;;17.13;6.63;;;9.00;99.90;;;;;;5056406;28;20032;-75
2024/02/11 09:08:00;;;;;;;13.55;5.60;;;9.00;99.90;;;;;;5045856;28;20110;-73
2024/02/11 09:10:25;;;;;;;14.90;5.20;;;9.00;99.90;;;;;;5046974;28;20071;-73
2024/02/11 09:12:51;;;;;;;13.48;4.75;;;9.10;99.90;;;;;;5054688;28;20500;-73
2024/02/11 09:15:17;;;;;;;22.13;4.70;;;9.10;99.90;;;;;;5059168;28;20565;-72
2024/02/11 09:17:43;;;;;;;15.75;5.07;;;9.10;99.90;;;;;;5052148;28;20033;-74
2024/02/11 09:20:13;;;;;;;15.65;6.10;;;9.10;99.90;;;;;;5048374;28;20043;-73
2024/02/11 09:22:39;;;;;;;16.20;5.75;;;9.10;99.90;;;;;;5053895;28;20041;-72
2024/02/11 09:25:07;;;;;;;16.77;5.97;;;9.10;99.90;;;;;;5046199;28;20040;-74
2024/02/11 09:27:32;;;;;;;19.15;5.05;;;9.10;99.90;;;;;;5058381;28;20033;-72
2024/02/11 09:29:58;;;;;;;20.30;5.53;;;9.10;99.90;;;;;;5057000;28;20037;-75
2024/02/11 09:32:24;;;;;;;21.95;7.18;;;9.10;99.90;;;;;;5058304;28;20066;-74
2024/02/11 09:34:50;;;;;;;19.67;6.35;;;9.20;99.90;;;;;;5055401;28;20035;-72
2024/02/11 09:37:16;;;;;;;19.25;5.85;;;9.20;99.90;;;;;;5059541;28;20116;-73
2024/02/11 09:39:42;;;;;;;14.57;5.00;;;9.30;99.90;;;;;;5056626;28;20032;-72
2024/02/11 09:42:16;;;;;;;16.77;5.00;;;9.30;99.90;;;;;;5058950;28;20045;-73
2024/02/11 09:44:43;;;;;;;20.73;5.20;;;9.40;99.90;;;;;;5045230;28;20036;-74
2024/02/11 09:47:11;;;;;;;12.05;5.35;;;9.50;99.90;;;;;;5046413;28;20037;-74
2024/02/11 09:49:38;;;;;;;17.02;5.47;;;9.60;99.90;;;;;;5055855;28;20071;-75
2024/02/11 09:52:05;;;;;;;11.75;5.90;;;9.60;99.90;;;;;;5058420;28;20502;-73
2024/02/11 09:54:32;;;;;;;14.65;5.45;;;9.60;99.90;;;;;;5055060;28;20029;-73
2024/02/11 09:56:58;;;;;;;12.85;5.32;;;9.70;99.90;;;;;;5063128;28;20107;-75
2024/02/11 09:59:26;;;;;;;11.80;5.82;;;9.70;99.90;;;;;;5049169;28;20124;-73
2024/02/11 10:01:56;;;;;;;15.18;5.85;;;9.70;99.90;;;;;;5062785;28;20036;-72
2024/02/11 10:04:28;;;;;;;20.02;7.32;;;9.80;99.90;;;;;;5053730;28;20039;-74
2024/02/11 10:06:54;;;;;;;18.60;6.70;;;9.80;99.90;;;;;;5044121;28;20057;-74
2024/02/11 10:09:22;;;;;;;18.75;7.05;;;9.90;99.90;;;;;;5066538;28;20036;-73
2024/02/11 10:11:48;;;;;;;16.27;7.22;;;9.90;99.90;;;;;;5045229;28;20405;-75
2024/02/11 10:14:15;;;;;;;24.65;8.25;;;9.90;99.90;;;;;;5050030;28;20102;-73
2024/02/11 10:16:41;;;;;;;18.05;6.80;;;9.90;99.90;;;;;;5051377;28;20040;-76
2024/02/11 10:19:07;;;;;;;16.20;7.03;;;10.00;99.90;;;;;;5059129;28;20025;-73
2024/02/11 10:21:36;;;;;;;17.95;8.10;;;10.10;99.90;;;;;;5065749;28;20036;-73
2024/02/11 10:24:05;;;;;;;20.50;7.00;;;10.20;99.90;;;;;;5047083;28;20046;-74
2024/02/11 10:26:35;;;;;;;15.20;7.20;;;10.20;99.90;;;;;;5050008;28;20040;-74
2024/02/11 10:29:04;;;;;;;18.30;6.70;;;10.20;99.90;;;;;;5058797;28;20037;-74
2024/02/11 10:31:29;;;;;;;17.15;7.53;;;10.10;99.90;;;;;;5050625;28;20036;-75
2024/02/11 10:33:58;;;;;;;21.90;6.93;;;10.10;99.90;;;;;;5050628;28;20046;-75
2024/02/11 10:36:25;;;;;;;21.08;9.13;;;10.10;99.90;;;;;;5064702;28;20029;-70
2024/02/11 10:38:56;;;;;;;20.42;7.10;;;10.00;99.90;;;;;;5064703;28;20452;-72
2024/02/11 10:41:26;;;;;;;22.27;7.75;;;10.00;99.90;;;;;;5067659;28;20556;-73
2024/02/11 10:43:52;;;;;;;24.00;8.52;;;9.90;99.90;;;;;;5063325;28;20259;-73
2024/02/11 10:46:18;;;;;;;18.85;7.68;;;9.90;99.90;;;;;;5066085;28;20035;-73
2024/02/11 10:48:44;;;;;;;21.33;7.50;;;9.90;99.90;;;;;;5063721;28;20032;-73
2024/02/11 10:51:29;;;;;;;20.20;7.55;;;9.90;99.90;;;;;;5063090;28;20681;-74
2024/02/11 10:54:05;;;;;;;22.67;8.30;;;9.90;99.90;;;;;;5041662;28;20068;-73
2024/02/11 10:56:33;;;;;;;19.73;7.25;;;9.90;99.90;;;;;;5058168;28;20128;-73
2024/02/11 10:59:27;;;;;;;15.40;7.43;;;9.90;99.90;;;;;;5044106;28;20115;-73
2024/02/11 11:01:55;;;;;;;15.73;6.93;;;9.90;99.90;;;;;;5042619;28;20063;-73
2024/02/11 11:04:23;;;;;;;20.60;7.88;;;9.90;99.90;;;;;;5045464;28;20047;-75
2024/02/11 11:06:51;;;;;;;20.17;7.30;;;10.00;99.90;;;;;;5059557;28;20110;-75
2024/02/11 11:09:20;;;;;;;22.92;8.25;;;9.90;99.90;;;;;;5062218;28;20093;-73
2024/02/11 11:11:45;;;;;;;23.75;7.28;;;9.90;99.90;;;;;;5058916;28;20064;-73
2024/02/11 11:14:12;;;;;;;23.80;8.13;;;10.00;99.90;;;;;;5061812;28;20060;-74
2024/02/11 11:16:38;;;;;;;30.42;9.95;;;10.00;99.90;;;;;;5046432;28;20039;-73
2024/02/11 11:19:14;;;;;;;27.40;8.18;;;10.00;99.90;;;;;;5065705;28;20036;-74
2024/02/11 11:21:50;;;;;;;27.77;10.38;;;10.00;99.90;;;;;;5060856;28;20037;-73
2024/02/11 11:24:18;;;;;;;22.90;8.23;;;10.10;99.90;;;;;;5058232;28;20044;-71
2024/02/11 11:26:53;;;;;;;23.30;8.60;;;10.10;99.90;;;;;;5039838;28;20148;-73
2024/02/11 11:29:23;;;;;;;32.22;8.68;;;10.10;99.90;;;;;;5043548;28;20044;-71
2024/02/11 11:31:58;;;;;;;27.15;7.97;;;10.10;99.90;;;;;;5057538;28;20037;-74
2024/02/11 11:34:30;;;;;;;25.95;8.52;;;10.10;99.90;;;;;;5053294;28;20033;-74
2024/02/11 11:37:06;;;;;;;29.20;9.45;;;10.10;99.90;;;;;;5052990;28;20119;-73
2024/02/11 11:39:32;;;;;;;23.77;8.75;;;10.10;99.90;;;;;;5063258;28;20090;-73
2024/02/11 11:41:58;;;;;;;18.77;8.27;;;10.10;99.90;;;;;;5041125;28;20041;-74
2024/02/11 11:44:24;;;;;;;18.70;7.70;;;10.20;99.90;;;;;;5046963;28;20037;-72
2024/02/11 11:46:53;;;;;;;23.15;8.30;;;10.20;99.90;;;;;;5049591;28;20102;-73
2024/02/11 11:49:19;;;;;;;24.67;9.13;;;10.10;99.90;;;;;;5068639;28;20035;-70
2024/02/11 11:51:44;;;;;;;28.10;10.30;;;10.10;99.90;;;;;;5046192;28;20409;-76
2024/02/11 11:54:10;;;;;;;22.00;8.60;;;10.10;99.90;;;;;;5050723;28;20044;-74
2024/02/11 11:56:37;;;;;;;24.42;9.60;;;10.10;99.90;;;;;;5065494;28;20451;-75
2024/02/11 11:59:06;;;;;;;22.90;8.30;;;10.10;99.90;;;;;;5049875;28;20054;-73
2024/02/11 12:01:32;;;;;;;19.92;8.15;;;10.10;99.90;;;;;;5066860;28;20036;-72
2024/02/11 12:03:57;;;;;;;17.55;7.90;;;10.20;99.90;;;;;;5058920;28;20025;-73
2024/02/11 12:06:23;;;;;;;26.92;9.13;;;10.30;99.90;;;;;;5048257;28;20114;-74
2024/02/11 12:08:49;;;;;;;19.17;8.00;;;10.30;99.90;;;;;;5045497;28;20037;-74
2024/02/11 12:11:15;;;;;;;21.50;7.40;;;10.40;99.90;;;;;;5048397;28;20044;-73
2024/02/11 12:13:41;;;;;;;21.55;9.05;;;10.50;99.90;;;;;;5054903;28;20032;-77
2024/02/11 12:16:13;;;;;;;22.35;8.45;;;10.50;99.90;;;;;;5062436;28;20041;-75
2024/02/11 12:18:40;;;;;;;25.35;9.05;;;10.50;99.90;;;;;;5054851;28;20040;-73
2024/02/11 12:21:07;;;;;;;19.83;8.23;;;10.40;99.90;;;;;;5057424;28;20242;-72
2024/02/11 12:23:34;;;;;;;22.88;8.52;;;10.40;99.90;;;;;;5064134;28;20029;-72
2024/02/11 12:25:59;;;;;;;18.75;8.75;;;10.30;99.90;;;;;;5060222;28;20424;-75
2024/02/11 12:28:27;;;;;;;27.40;9.23;;;10.30;99.90;;;;;;5064098;28;20036;-74
2024/02/11 12:31:13;;;;;;;23.50;8.38;;;10.30;99.90;;;;;;5038750;28;20623;-72
2024/02/11 12:33:41;;;;;;;20.80;7.85;;;10.50;99.90;;;;;;5057193;28;20044;-73
2024/02/11 12:36:09;;;;;;;22.08;7.78;;;10.50;99.90;;;;;;5045777;28;20508;-73
2024/02/11 12:38:36;;;;;;;20.05;8.13;;;10.60;99.90;;;;;;5059320;28;20096;-73
2024/02/11 12:41:02;;;;;;;27.63;8.13;;;10.60;99.90;;;;;;5060649;28;20513;-73